Time;durP1;ratioP1;P1;durP2;ratioP2;P2;SDS_P1;SDS_P2;PMS_P1;PMS_P2;Temp;Humidity;BMP_temperature;BMP_pressure;BME280_temperature;BME280_humidity;BME280_pressure;Samples;Min_cycle;Max_cycle;Signal;HPM_P1;HPM_P2
2023/07/29 00:01:44;;;;;;;2.33;2.00;;;20.00;99.90;;;;;;5021402;28;20264;-76
2023/07/29 00:04:10;;;;;;;1.63;1.53;;;20.00;99.90;;;;;;4978461;28;20286;-76
2023/07/29 00:06:36;;;;;;;2.27;1.77;;;20.00;99.90;;;;;;5029815;28;20189;-75
2023/07/29 00:09:02;;;;;;;3.10;1.73;;;20.00;99.90;;;;;;5009473;28;20194;-76
2023/07/29 00:11:28;;;;;;;2.37;1.70;;;20.00;99.90;;;;;;4995720;28;20214;-74
2023/07/29 00:13:54;;;;;;;2.87;1.93;;;20.10;99.90;;;;;;5013611;28;20206;-76
2023/07/29 00:16:22;;;;;;;2.07;1.60;;;20.10;99.90;;;;;;5029767;28;20187;-76
2023/07/29 00:18:48;;;;;;;3.27;1.63;;;20.10;99.90;;;;;;5012343;28;20179;-76
2023/07/29 00:21:14;;;;;;;2.23;1.70;;;20.10;99.90;;;;;;5029910;28;20190;-76
2023/07/29 00:23:40;;;;;;;1.50;1.40;;;20.10;99.90;;;;;;5029197;28;20181;-75
2023/07/29 00:26:06;;;;;;;1.53;1.43;;;20.10;99.90;;;;;;5029765;28;20182;-76
2023/07/29 00:28:32;;;;;;;2.47;1.50;;;20.10;99.90;;;;;;5029646;28;20182;-76
2023/07/29 00:30:58;;;;;;;2.23;1.50;;;20.20;99.90;;;;;;5012181;28;20236;-76
2023/07/29 00:33:24;;;;;;;1.40;1.30;;;20.20;99.90;;;;;;5011430;28;20277;-76
2023/07/29 00:35:50;;;;;;;1.80;1.70;;;20.20;99.90;;;;;;4995505;28;20202;-76
2023/07/29 00:38:16;;;;;;;1.70;1.60;;;20.20;99.90;;;;;;5029750;28;20182;-76
2023/07/29 00:40:42;;;;;;;1.60;1.43;;;20.20;99.90;;;;;;5028163;28;20192;-76
2023/07/29 00:43:08;;;;;;;1.63;1.50;;;20.20;99.90;;;;;;4995349;28;20206;-76
2023/07/29 00:45:35;;;;;;;1.60;1.50;;;20.20;99.90;;;;;;5029281;28;20206;-76
2023/07/29 00:48:02;;;;;;;1.60;1.50;;;20.20;99.90;;;;;;5011689;28;20249;-76
2023/07/29 00:50:29;;;;;;;1.90;1.70;;;20.20;99.90;;;;;;4996855;28;20199;-75
2023/07/29 00:52:56;;;;;;;1.90;1.80;;;20.20;99.90;;;;;;5011267;28;20625;-76
2023/07/29 00:55:23;;;;;;;2.77;1.77;;;20.20;99.90;;;;;;4995487;28;20477;-76
2023/07/29 00:57:52;;;;;;;2.67;1.43;;;20.20;99.90;;;;;;5015542;28;20261;-76
2023/07/29 01:00:18;;;;;;;3.17;1.80;;;20.20;99.90;;;;;;5011840;28;20193;-75
2023/07/29 01:02:44;;;;;;;1.60;1.50;;;20.10;99.90;;;;;;5010973;28;20222;-76
2023/07/29 01:05:13;;;;;;;2.73;1.50;;;20.10;99.90;;;;;;5029398;28;20244;-75
2023/07/29 01:08:01;;;;;;;2.40;1.40;;;20.10;99.90;;;;;;4992982;28;20182;-76
2023/07/29 01:10:54;;;;;;;2.53;1.70;;;20.10;99.90;;;;;;5011350;28;20186;-76
2023/07/29 01:13:41;;;;;;;2.27;1.40;;;20.10;99.90;;;;;;5007720;28;20566;-76
2023/07/29 01:16:29;;;;;;;1.80;1.70;;;20.10;99.90;;;;;;5004954;28;20181;-76
2023/07/29 01:18:56;;;;;;;1.60;1.50;;;20.00;99.90;;;;;;5022671;28;20281;-76
2023/07/29 01:21:22;;;;;;;1.63;1.30;;;20.00;99.90;;;;;;4997687;28;20660;-76
2023/07/29 01:23:51;;;;;;;1.57;1.47;;;20.10;99.90;;;;;;5010615;28;20198;-76
2023/07/29 01:26:17;;;;;;;1.67;1.57;;;20.10;99.90;;;;;;4991527;28;20198;-74
2023/07/29 01:28:44;;;;;;;1.50;1.40;;;20.10;99.90;;;;;;5009826;28;20194;-76
2023/07/29 01:31:13;;;;;;;2.70;1.50;;;20.10;99.90;;;;;;5007339;28;20207;-75
2023/07/29 01:33:59;;;;;;;1.57;1.43;;;20.10;99.90;;;;;;5010460;28;20629;-76
2023/07/29 01:36:29;;;;;;;3.43;1.50;;;20.10;99.90;;;;;;5010784;28;20195;-76
2023/07/29 01:38:57;;;;;;;2.90;1.73;;;20.10;99.90;;;;;;5022489;28;20175;-76
2023/07/29 01:41:24;;;;;;;1.40;1.30;;;20.10;99.90;;;;;;5010779;28;20194;-76
2023/07/29 01:43:51;;;;;;;1.63;1.43;;;20.10;99.90;;;;;;4992980;28;20261;-76
2023/07/29 01:46:17;;;;;;;2.57;1.40;;;20.10;99.90;;;;;;5011089;28;20287;-76
2023/07/29 01:48:43;;;;;;;3.27;1.57;;;20.10;99.90;;;;;;5009719;28;20710;-76
2023/07/29 01:51:12;;;;;;;2.53;1.60;;;20.10;99.90;;;;;;5011625;28;20218;-76
2023/07/29 01:53:38;;;;;;;1.90;1.40;;;20.10;99.90;;;;;;5010605;28;20577;-76
2023/07/29 01:56:04;;;;;;;1.70;1.60;;;20.00;99.90;;;;;;5009276;28;20187;-76
2023/07/29 01:58:30;;;;;;;2.20;1.60;;;20.00;99.90;;;;;;5008970;28;20249;-76
2023/07/29 02:00:56;;;;;;;2.63;1.50;;;20.00;99.90;;;;;;5010884;28;20195;-76
2023/07/29 02:03:22;;;;;;;2.23;1.37;;;20.00;99.90;;;;;;4995384;28;20210;-76
2023/07/29 02:05:47;;;;;;;1.60;1.50;;;20.00;99.90;;;;;;5010200;28;20241;-76
2023/07/29 02:08:13;;;;;;;2.47;1.67;;;20.00;99.90;;;;;;5007223;28;20667;-76
2023/07/29 02:10:39;;;;;;;2.03;1.80;;;20.00;99.90;;;;;;4993650;28;20228;-76
2023/07/29 02:13:05;;;;;;;1.97;1.77;;;20.00;99.90;;;;;;4998469;28;20226;-76
2023/07/29 02:15:31;;;;;;;4.37;1.70;;;20.00;99.90;;;;;;5006644;28;20175;-75
2023/07/29 02:17:59;;;;;;;3.57;1.60;;;20.00;99.90;;;;;;4990612;28;20183;-76
2023/07/29 02:20:24;;;;;;;2.37;1.63;;;20.00;99.90;;;;;;4994451;28;20656;-76
2023/07/29 02:22:51;;;;;;;1.67;1.33;;;20.00;99.90;;;;;;5008195;28;20198;-76
2023/07/29 02:25:17;;;;;;;2.87;1.60;;;20.00;99.90;;;;;;4994007;28;20253;-76
2023/07/29 02:27:43;;;;;;;4.40;1.70;;;20.10;99.90;;;;;;5006498;28;20282;-75
2023/07/29 02:30:09;;;;;;;1.87;1.60;;;20.10;99.90;;;;;;5010120;28;20612;-76
2023/07/29 02:32:35;;;;;;;2.47;1.73;;;20.00;99.90;;;;;;5009666;28;20292;-76
2023/07/29 02:35:01;;;;;;;2.23;1.43;;;20.10;99.90;;;;;;5009933;28;20197;-75
2023/07/29 02:37:27;;;;;;;2.80;1.50;;;20.00;99.90;;;;;;4977174;28;20201;-76
2023/07/29 02:39:53;;;;;;;1.67;1.57;;;20.10;99.90;;;;;;5011647;28;20462;-76
2023/07/29 02:42:19;;;;;;;2.13;1.60;;;20.10;99.90;;;;;;5008246;28;20295;-75
2023/07/29 02:44:45;;;;;;;1.90;1.67;;;20.00;99.90;;;;;;4992088;28;20274;-76
2023/07/29 02:47:11;;;;;;;2.17;1.37;;;20.00;99.90;;;;;;5021734;28;20187;-76
2023/07/29 02:49:36;;;;;;;2.07;1.50;;;20.00;99.90;;;;;;5019730;28;20183;-76
2023/07/29 02:52:02;;;;;;;1.37;1.27;;;20.10;99.90;;;;;;5023172;28;20293;-75
2023/07/29 02:54:28;;;;;;;1.60;1.40;;;20.00;99.90;;;;;;5018347;28;20265;-76
2023/07/29 02:56:54;;;;;;;4.20;1.60;;;20.10;99.90;;;;;;5016951;28;20950;-76
2023/07/29 02:59:20;;;;;;;2.53;1.57;;;20.10;99.90;;;;;;5017636;28;20187;-76
2023/07/29 03:01:46;;;;;;;2.13;1.60;;;20.10;99.90;;;;;;5009644;28;20301;-76
2023/07/29 03:04:14;;;;;;;2.03;1.40;;;20.10;99.90;;;;;;5009385;28;20328;-75
2023/07/29 03:06:40;;;;;;;1.43;1.33;;;20.00;99.90;;;;;;5007587;28;20187;-76
2023/07/29 03:09:06;;;;;;;2.27;1.80;;;20.00;99.90;;;;;;5027391;28;20193;-76
2023/07/29 03:11:31;;;;;;;2.47;1.70;;;20.00;99.90;;;;;;5026998;28;20210;-75
2023/07/29 03:13:57;;;;;;;2.87;1.60;;;20.00;99.90;;;;;;5009723;28;20270;-75
2023/07/29 03:16:24;;;;;;;3.20;1.60;;;20.00;99.90;;;;;;5006517;28;20242;-75
2023/07/29 03:18:53;;;;;;;3.00;1.60;;;20.00;99.90;;;;;;5009497;28;20600;-76
2023/07/29 03:21:19;;;;;;;1.60;1.50;;;20.00;99.90;;;;;;5020362;28;20185;-75
2023/07/29 03:23:45;;;;;;;1.60;1.50;;;20.00;99.90;;;;;;5007172;28;20186;-76
2023/07/29 03:26:11;;;;;;;1.60;1.50;;;20.00;99.90;;;;;;5009061;28;20655;-76
2023/07/29 03:28:39;;;;;;;1.70;1.60;;;20.00;99.90;;;;;;5009250;28;20187;-76
2023/07/29 03:31:05;;;;;;;1.67;1.57;;;19.90;99.90;;;;;;5020449;28;20271;-76
2023/07/29 03:33:32;;;;;;;1.93;1.60;;;19.90;99.90;;;;;;5008962;28;20203;-75
2023/07/29 03:35:58;;;;;;;1.70;1.60;;;19.90;99.90;;;;;;5023015;28;20592;-76
2023/07/29 03:38:23;;;;;;;1.60;1.50;;;19.90;99.90;;;;;;4977166;28;20244;-76
2023/07/29 03:40:51;;;;;;;1.87;1.57;;;19.90;99.90;;;;;;5009460;28;20557;-76
2023/07/29 03:43:16;;;;;;;1.67;1.57;;;19.90;99.90;;;;;;4988340;28;20711;-76
2023/07/29 03:45:43;;;;;;;1.80;1.70;;;19.90;99.90;;;;;;5008765;28;20414;-76
2023/07/29 03:48:08;;;;;;;3.40;1.90;;;19.90;99.90;;;;;;5009909;28;20265;-76
2023/07/29 03:50:35;;;;;;;4.53;2.10;;;20.00;99.90;;;;;;4993049;28;20652;-75
2023/07/29 03:53:03;;;;;;;5.33;1.77;;;19.90;99.90;;;;;;5022902;28;20234;-76
2023/07/29 03:55:29;;;;;;;2.07;1.53;;;20.00;99.90;;;;;;5013264;28;20195;-76
2023/07/29 03:57:57;;;;;;;3.70;1.90;;;20.00;99.90;;;;;;5006931;28;20181;-76
2023/07/29 04:00:23;;;;;;;3.00;1.83;;;20.00;99.90;;;;;;4999851;28;20187;-76
2023/07/29 04:02:49;;;;;;;4.20;1.90;;;20.00;99.90;;;;;;5012548;28;20222;-76
2023/07/29 04:05:15;;;;;;;2.63;1.70;;;20.00;99.90;;;;;;5000168;28;20557;-76
2023/07/29 04:07:41;;;;;;;1.70;1.40;;;20.00;99.90;;;;;;5010495;28;20183;-76
2023/07/29 04:10:07;;;;;;;1.80;1.70;;;20.00;99.90;;;;;;5000824;28;20187;-76
2023/07/29 04:12:33;;;;;;;1.70;1.60;;;20.00;99.90;;;;;;5010360;28;20207;-75
2023/07/29 04:14:59;;;;;;;1.83;1.60;;;20.00;99.90;;;;;;4996020;28;20284;-75
2023/07/29 04:17:25;;;;;;;1.60;1.40;;;20.00;99.90;;;;;;5009562;28;20262;-75
2023/07/29 04:19:50;;;;;;;2.87;1.60;;;20.00;99.90;;;;;;4996244;28;20643;-76
2023/07/29 04:22:17;;;;;;;1.70;1.60;;;20.10;99.90;;;;;;5013153;28;20317;-75
2023/07/29 04:24:43;;;;;;;2.50;1.30;;;20.00;99.90;;;;;;4995574;28;20281;-75
2023/07/29 04:27:09;;;;;;;1.50;1.40;;;20.10;99.90;;;;;;5012160;28;20555;-76
2023/07/29 04:29:36;;;;;;;3.80;2.00;;;20.10;99.90;;;;;;5005438;28;20187;-76
2023/07/29 04:32:02;;;;;;;1.80;1.57;;;20.10;99.90;;;;;;4979661;28;20247;-75
2023/07/29 04:34:28;;;;;;;3.50;1.60;;;20.10;99.90;;;;;;5029572;28;20643;-76
2023/07/29 04:36:54;;;;;;;2.27;1.70;;;20.20;99.90;;;;;;5029451;28;20171;-76
2023/07/29 04:39:20;;;;;;;2.50;1.67;;;20.20;99.90;;;;;;5011832;28;20214;-75
2023/07/29 04:41:46;;;;;;;2.83;1.73;;;20.20;99.90;;;;;;5029614;28;20225;-75
2023/07/29 04:44:12;;;;;;;2.30;1.50;;;20.20;99.90;;;;;;5011853;28;20186;-76
2023/07/29 04:46:38;;;;;;;3.37;1.60;;;20.20;99.90;;;;;;5022653;28;20178;-76
2023/07/29 04:49:04;;;;;;;4.77;1.90;;;20.20;99.90;;;;;;5029675;28;20244;-75
2023/07/29 04:51:31;;;;;;;3.07;1.77;;;20.20;99.90;;;;;;5022499;28;20683;-75
2023/07/29 04:53:58;;;;;;;2.70;1.60;;;20.20;99.90;;;;;;5005323;28;20674;-76
2023/07/29 04:56:24;;;;;;;3.40;1.70;;;20.20;99.90;;;;;;5010035;28;20186;-76
2023/07/29 04:58:50;;;;;;;2.17;1.70;;;20.20;99.90;;;;;;4995715;28;20198;-76
2023/07/29 05:01:15;;;;;;;2.53;1.83;;;20.30;99.90;;;;;;5016428;28;20183;-75
2023/07/29 05:03:41;;;;;;;4.90;2.13;;;20.30;99.90;;;;;;5010509;23;20375;-73
2023/07/29 05:06:07;;;;;;;3.37;2.00;;;20.30;99.90;;;;;;4987958;28;20270;-73
2023/07/29 05:08:34;;;;;;;2.80;1.83;;;20.30;99.90;;;;;;5006657;28;20183;-73
2023/07/29 05:11:00;;;;;;;2.67;2.00;;;20.30;99.90;;;;;;5008461;28;20549;-73
2023/07/29 05:13:26;;;;;;;2.80;2.07;;;20.20;99.90;;;;;;5009143;28;20301;-73
2023/07/29 05:15:52;;;;;;;2.57;1.90;;;20.20;99.90;;;;;;5007928;28;20258;-73
2023/07/29 05:18:18;;;;;;;2.27;2.00;;;20.20;99.90;;;;;;5008368;28;20179;-73
2023/07/29 05:20:44;;;;;;;4.10;2.13;;;20.10;99.90;;;;;;5007850;28;20290;-73
2023/07/29 05:23:10;;;;;;;5.90;1.87;;;20.10;99.90;;;;;;5001395;28;20202;-73
2023/07/29 05:25:36;;;;;;;4.20;1.93;;;20.20;99.90;;;;;;5007973;28;20184;-74
2023/07/29 05:28:02;;;;;;;3.23;1.90;;;20.20;99.90;;;;;;5008012;28;20271;-74
2023/07/29 05:30:31;;;;;;;1.80;1.70;;;20.10;99.90;;;;;;5009238;28;20179;-74
2023/07/29 05:32:57;;;;;;;2.67;1.83;;;20.10;99.90;;;;;;5008736;28;20214;-73
2023/07/29 05:35:24;;;;;;;2.00;1.80;;;20.10;99.90;;;;;;4991396;28;20269;-73
2023/07/29 05:37:50;;;;;;;1.90;1.80;;;20.10;99.90;;;;;;5007553;28;20515;-74
2023/07/29 05:40:16;;;;;;;1.90;1.70;;;20.20;99.90;;;;;;5009241;28;20179;-73
2023/07/29 05:42:43;;;;;;;4.30;1.70;;;20.10;99.90;;;;;;5007486;28;20215;-73
2023/07/29 05:45:10;;;;;;;2.00;1.80;;;20.20;99.90;;;;;;5008797;28;20191;-73
2023/07/29 05:47:36;;;;;;;3.03;1.97;;;20.20;99.90;;;;;;5006062;28;20191;-73
2023/07/29 05:50:04;;;;;;;1.50;1.40;;;20.20;99.90;;;;;;5008065;28;20214;-73
2023/07/29 05:52:33;;;;;;;2.43;1.50;;;20.10;99.90;;;;;;5008752;28;20483;-73
2023/07/29 05:54:59;;;;;;;2.80;1.50;;;20.10;99.90;;;;;;4998057;28;20188;-73
2023/07/29 05:57:25;;;;;;;1.40;1.30;;;20.10;99.90;;;;;;5005917;28;20175;-73
2023/07/29 05:59:50;;;;;;;1.47;1.37;;;20.10;99.90;;;;;;5009567;28;20736;-73
2023/07/29 06:02:16;;;;;;;1.50;1.40;;;20.20;99.90;;;;;;5008251;28;20206;-73
2023/07/29 06:04:42;;;;;;;1.90;1.33;;;20.20;99.90;;;;;;5007748;28;20511;-73
2023/07/29 06:07:08;;;;;;;1.40;1.30;;;20.20;99.90;;;;;;5007525;28;20550;-73
2023/07/29 06:09:34;;;;;;;1.67;1.57;;;20.10;99.90;;;;;;5007336;28;20191;-73
2023/07/29 06:12:00;;;;;;;3.10;1.50;;;20.20;99.90;;;;;;4996856;28;20351;-74
2023/07/29 06:14:26;;;;;;;1.40;1.30;;;20.20;99.90;;;;;;5004679;28;20187;-74
2023/07/29 06:16:52;;;;;;;1.60;1.50;;;20.30;99.90;;;;;;4990939;28;20191;-73
2023/07/29 06:19:19;;;;;;;2.20;1.43;;;20.40;99.90;;;;;;5008442;28;20190;-73
2023/07/29 06:21:45;;;;;;;1.90;1.40;;;20.50;99.90;;;;;;5005654;28;20214;-73
2023/07/29 06:24:11;;;;;;;1.37;1.27;;;20.60;99.90;;;;;;5003890;28;20192;-73
2023/07/29 06:26:37;;;;;;;4.13;1.50;;;20.70;99.90;;;;;;5006943;28;20182;-73
2023/07/29 06:29:03;;;;;;;1.50;1.40;;;20.80;99.90;;;;;;5008671;28;20652;-73
2023/07/29 06:31:29;;;;;;;1.73;1.50;;;20.70;99.90;;;;;;5006871;28;20203;-73
2023/07/29 06:33:55;;;;;;;2.00;1.50;;;20.70;99.90;;;;;;5006709;28;20175;-73
2023/07/29 06:36:21;;;;;;;1.57;1.40;;;20.80;99.90;;;;;;5007834;28;20214;-73
2023/07/29 06:38:47;;;;;;;1.80;1.40;;;20.80;99.90;;;;;;5008072;28;20216;-73
2023/07/29 06:41:13;;;;;;;1.57;1.40;;;20.80;99.90;;;;;;4990990;28;20191;-73
2023/07/29 06:43:39;;;;;;;1.70;1.50;;;20.80;99.90;;;;;;5007619;28;20218;-73
2023/07/29 06:46:04;;;;;;;2.00;1.50;;;21.00;99.90;;;;;;5008200;28;20190;-73
2023/07/29 06:48:30;;;;;;;1.60;1.50;;;21.10;99.90;;;;;;5006959;28;20551;-73
2023/07/29 06:51:00;;;;;;;1.50;1.40;;;21.10;99.90;;;;;;5008134;28;20186;-73
2023/07/29 06:53:26;;;;;;;2.93;1.70;;;21.20;99.90;;;;;;5008153;28;20195;-73
2023/07/29 06:55:52;;;;;;;3.00;1.90;;;21.20;99.90;;;;;;5007642;28;20195;-71
2023/07/29 06:58:18;;;;;;;1.97;1.77;;;21.30;99.90;;;;;;5007861;28;20190;-70
2023/07/29 07:00:44;;;;;;;3.57;2.10;;;21.30;99.90;;;;;;5007210;28;20545;-71
2023/07/29 07:03:10;;;;;;;2.20;2.00;;;21.40;99.90;;;;;;5000455;28;20207;-71
2023/07/29 07:05:36;;;;;;;4.03;2.20;;;21.40;99.90;;;;;;5006052;28;20183;-70
2023/07/29 07:08:02;;;;;;;2.93;2.30;;;21.50;99.90;;;;;;5007671;28;20190;-70
2023/07/29 07:10:27;;;;;;;2.37;2.17;;;21.60;99.90;;;;;;5007603;28;20270;-71
2023/07/29 07:12:53;;;;;;;3.17;2.10;;;21.80;99.90;;;;;;5007568;28;20705;-71
2023/07/29 07:15:19;;;;;;;2.53;2.03;;;21.80;99.90;;;;;;5007215;28;20209;-71
2023/07/29 07:17:44;;;;;;;4.27;2.20;;;22.00;99.90;;;;;;5006752;28;20233;-71
2023/07/29 07:20:11;;;;;;;3.33;2.60;;;22.00;99.90;;;;;;5007627;28;20282;-70
2023/07/29 07:22:37;;;;;;;4.47;2.60;;;22.10;99.90;;;;;;5007321;28;20605;-71
2023/07/29 07:25:03;;;;;;;3.03;2.37;;;22.20;99.90;;;;;;5007299;28;20187;-71
2023/07/29 07:27:29;;;;;;;3.00;2.30;;;22.30;99.90;;;;;;5005727;28;20195;-71
2023/07/29 07:29:55;;;;;;;2.47;2.00;;;22.40;99.90;;;;;;5008603;28;20670;-70
2023/07/29 07:32:20;;;;;;;2.97;2.10;;;22.40;99.90;;;;;;5011271;28;20245;-71
2023/07/29 07:34:46;;;;;;;4.57;2.50;;;22.50;99.90;;;;;;5009377;28;20176;-71
2023/07/29 07:37:12;;;;;;;2.60;2.20;;;22.50;99.90;;;;;;5011030;28;20191;-71
2023/07/29 07:39:38;;;;;;;3.63;2.20;;;22.50;99.90;;;;;;5010854;28;20184;-71
2023/07/29 07:42:04;;;;;;;2.30;2.10;;;22.60;99.90;;;;;;5011145;28;20722;-71
2023/07/29 07:44:29;;;;;;;3.00;2.70;;;22.60;99.90;;;;;;5010195;28;20182;-72
2023/07/29 07:46:55;;;;;;;3.47;2.50;;;22.40;99.90;;;;;;5010693;28;20183;-70
2023/07/29 07:49:22;;;;;;;3.47;2.67;;;22.30;99.90;;;;;;5010854;28;20214;-69
2023/07/29 07:51:47;;;;;;;2.93;2.53;;;22.20;99.90;;;;;;5010723;28;20301;-70
2023/07/29 07:54:13;;;;;;;2.60;2.40;;;22.10;99.90;;;;;;5010674;28;20241;-69
2023/07/29 07:56:39;;;;;;;4.17;2.50;;;22.10;99.90;;;;;;5009939;28;20591;-69
2023/07/29 07:59:05;;;;;;;3.70;2.80;;;22.00;99.90;;;;;;5010484;28;20616;-68
2023/07/29 08:01:38;;;;;;;3.20;2.80;;;21.80;99.90;;;;;;5010353;28;20188;-69
2023/07/29 08:04:04;;;;;;;3.30;2.50;;;21.80;99.90;;;;;;5004597;28;20289;-69
2023/07/29 08:06:31;;;;;;;3.93;2.90;;;21.80;99.90;;;;;;5010374;28;20267;-70
2023/07/29 08:08:57;;;;;;;3.77;3.10;;;21.80;99.90;;;;;;5011097;28;20266;-69
2023/07/29 08:11:23;;;;;;;5.83;3.20;;;21.80;99.90;;;;;;5006645;28;20294;-69
2023/07/29 08:13:48;;;;;;;5.10;3.27;;;21.80;99.90;;;;;;5010301;28;20274;-70
2023/07/29 08:16:14;;;;;;;4.30;3.30;;;21.70;99.90;;;;;;5010582;28;20614;-69
2023/07/29 08:18:40;;;;;;;3.80;3.40;;;21.60;99.90;;;;;;5010377;28;20191;-70
2023/07/29 08:21:06;;;;;;;4.20;3.40;;;21.60;99.90;;;;;;5010683;28;20680;-69
2023/07/29 08:23:34;;;;;;;4.23;3.10;;;21.60;99.90;;;;;;5009722;28;20575;-68
2023/07/29 08:26:03;;;;;;;6.23;2.80;;;21.70;99.90;;;;;;5009233;28;20585;-69
2023/07/29 08:28:31;;;;;;;3.07;2.77;;;21.80;99.90;;;;;;5010240;28;20175;-69
2023/07/29 08:30:57;;;;;;;3.17;2.63;;;21.90;99.90;;;;;;5010334;28;20183;-70
2023/07/29 08:33:23;;;;;;;4.13;2.50;;;22.00;99.90;;;;;;5009201;28;20761;-70
2023/07/29 08:35:49;;;;;;;2.77;2.23;;;22.00;99.90;;;;;;5009610;28;20219;-69
2023/07/29 08:38:15;;;;;;;2.30;2.03;;;22.00;99.90;;;;;;5010556;28;20708;-69
2023/07/29 08:40:58;;;;;;;5.97;2.00;;;22.10;99.90;;;;;;5009750;28;20412;-70
2023/07/29 08:43:32;;;;;;;3.97;1.90;;;22.30;99.90;;;;;;5004851;28;20199;-70
2023/07/29 08:46:00;;;;;;;3.53;2.10;;;22.50;99.90;;;;;;4998740;28;20219;-69
2023/07/29 08:48:36;;;;;;;3.20;2.00;;;22.50;99.90;;;;;;5006877;28;20179;-69
2023/07/29 08:51:04;;;;;;;2.07;1.83;;;22.60;99.90;;;;;;5009941;28;20218;-69
2023/07/29 08:53:30;;;;;;;4.63;2.00;;;22.70;99.90;;;;;;5009022;28;20228;-69
2023/07/29 08:55:56;;;;;;;4.33;2.40;;;22.70;99.90;;;;;;5009370;28;20191;-69
2023/07/29 08:58:24;;;;;;;4.80;2.70;;;22.80;99.90;;;;;;5004941;28;20225;-70
2023/07/29 09:00:50;;;;;;;3.47;2.33;;;23.00;99.90;;;;;;5009679;28;20286;-70
2023/07/29 09:03:16;;;;;;;4.60;2.83;;;23.10;99.90;;;;;;5009036;28;20237;-71
2023/07/29 09:05:42;;;;;;;3.67;2.80;;;23.20;99.90;;;;;;5007527;28;20729;-69
2023/07/29 09:08:08;;;;;;;4.77;2.83;;;23.40;99.90;;;;;;5008397;28;20212;-69
2023/07/29 09:10:37;;;;;;;3.70;2.33;;;23.50;99.90;;;;;;5009095;28;20189;-69
2023/07/29 09:13:03;;;;;;;2.73;2.50;;;23.60;99.90;;;;;;5009419;28;20254;-69
2023/07/29 09:15:31;;;;;;;3.27;2.40;;;23.70;99.90;;;;;;5008683;28;20241;-70
2023/07/29 09:17:58;;;;;;;3.63;2.50;;;23.80;99.90;;;;;;5009179;28;20180;-70
2023/07/29 09:20:27;;;;;;;5.80;2.73;;;24.00;99.90;;;;;;5009054;28;20653;-69
2023/07/29 09:22:55;;;;;;;5.77;2.77;;;24.00;99.90;;;;;;5009804;28;20212;-69
2023/07/29 09:25:25;;;;;;;4.07;2.70;;;24.00;99.90;;;;;;5007304;28;20545;-69
2023/07/29 09:27:51;;;;;;;2.67;2.43;;;24.00;99.90;;;;;;5008302;28;20644;-69
2023/07/29 09:30:17;;;;;;;3.40;2.70;;;24.00;99.90;;;;;;5009512;28;20451;-69
2023/07/29 09:32:58;;;;;;;4.57;2.50;;;24.00;99.90;;;;;;5007816;28;20574;-69
2023/07/29 09:35:32;;;;;;;2.43;2.23;;;23.90;99.90;;;;;;5008461;28;20683;-70
2023/07/29 09:37:58;;;;;;;3.40;2.30;;;23.90;99.90;;;;;;5007748;28;20189;-68
2023/07/29 09:40:24;;;;;;;2.57;2.33;;;23.90;99.90;;;;;;5009266;28;20311;-68
2023/07/29 09:42:52;;;;;;;5.80;2.00;;;23.90;99.90;;;;;;5007912;28;20207;-67
2023/07/29 09:45:23;;;;;;;2.50;2.30;;;23.90;99.90;;;;;;5009465;28;20553;-68
2023/07/29 09:47:49;;;;;;;3.40;2.20;;;24.10;99.90;;;;;;5001649;28;20538;-68
2023/07/29 09:50:16;;;;;;;3.13;1.90;;;24.30;99.90;;;;;;5009480;28;20460;-68
2023/07/29 09:52:42;;;;;;;2.27;2.00;;;24.40;99.90;;;;;;5008463;28;20211;-68
2023/07/29 09:55:09;;;;;;;2.57;2.00;;;24.40;99.90;;;;;;5009062;28;20681;-68
2023/07/29 09:57:35;;;;;;;2.67;2.00;;;24.40;99.90;;;;;;5008860;28;20179;-68
2023/07/29 10:00:05;;;;;;;2.20;2.00;;;24.30;99.90;;;;;;5009176;28;20182;-68
2023/07/29 10:02:31;;;;;;;2.20;2.00;;;24.30;99.90;;;;;;5009090;28;20235;-68
2023/07/29 10:04:58;;;;;;;3.43;2.10;;;24.40;99.90;;;;;;5007845;28;20193;-68
2023/07/29 10:07:24;;;;;;;2.10;1.97;;;24.50;99.90;;;;;;5008740;28;20187;-68
2023/07/29 10:09:52;;;;;;;2.20;1.77;;;24.60;99.90;;;;;;5008907;28;20247;-68
2023/07/29 10:12:19;;;;;;;3.00;1.90;;;24.60;99.90;;;;;;5008977;28;20240;-68
2023/07/29 10:14:47;;;;;;;2.50;2.30;;;24.70;99.90;;;;;;5008591;28;20185;-68
2023/07/29 10:17:15;;;;;;;3.83;2.10;;;24.70;99.90;;;;;;5009396;28;20170;-68
2023/07/29 10:19:42;;;;;;;2.20;1.80;;;24.80;99.90;;;;;;5009142;28;20677;-69
2023/07/29 10:22:09;;;;;;;2.17;1.97;;;24.80;99.90;;;;;;5009351;28;20204;-68
2023/07/29 10:24:39;;;;;;;2.70;2.00;;;24.70;99.90;;;;;;5008617;28;20188;-68
2023/07/29 10:27:08;;;;;;;3.30;2.10;;;24.50;99.90;;;;;;5007333;28;20177;-69
2023/07/29 10:29:38;;;;;;;3.00;2.00;;;24.50;99.90;;;;;;5007093;28;20586;-68
2023/07/29 10:32:05;;;;;;;2.67;2.13;;;24.50;99.90;;;;;;5008653;28;20254;-68
2023/07/29 10:34:33;;;;;;;2.83;2.50;;;24.50;99.90;;;;;;5007002;28;20172;-68
2023/07/29 10:37:00;;;;;;;2.10;2.00;;;24.50;99.90;;;;;;5001767;28;20180;-68
2023/07/29 10:39:26;;;;;;;3.43;2.10;;;24.70;99.90;;;;;;5008382;28;20516;-68
2023/07/29 10:41:58;;;;;;;2.27;2.03;;;25.00;99.90;;;;;;4985149;28;20687;-68
2023/07/29 10:44:40;;;;;;;2.43;2.10;;;25.20;99.90;;;;;;5007767;28;20304;-69
2023/07/29 10:47:15;;;;;;;2.70;1.93;;;25.50;99.90;;;;;;5002036;28;20595;-69
2023/07/29 10:49:42;;;;;;;2.00;1.80;;;25.60;99.90;;;;;;5007599;28;20206;-69
2023/07/29 10:52:07;;;;;;;2.83;1.80;;;25.70;99.90;;;;;;5006784;28;20578;-68
2023/07/29 10:54:43;;;;;;;2.57;2.10;;;25.90;99.90;;;;;;5007642;28;20175;-68
2023/07/29 10:57:14;;;;;;;3.00;2.00;;;26.00;99.90;;;;;;5002603;28;20248;-69
2023/07/29 10:59:40;;;;;;;2.10;1.90;;;26.10;99.90;;;;;;5006318;28;20211;-68
2023/07/29 11:02:30;;;;;;;2.30;2.10;;;26.10;99.90;;;;;;5007972;28;20226;-68
2023/07/29 11:04:56;;;;;;;4.93;1.90;;;25.90;99.90;;;;;;5046328;22;20253;-74
2023/07/29 11:07:26;;;;;;;2.33;2.13;;;25.70;99.90;;;;;;5033926;28;20193;-74
2023/07/29 11:09:55;;;;;;;2.30;1.97;;;25.60;99.90;;;;;;5033826;28;20637;-74
2023/07/29 11:12:42;;;;;;;2.17;2.00;;;25.50;99.90;;;;;;5034010;28;20281;-75
2023/07/29 11:15:10;;;;;;;3.50;2.00;;;25.50;99.90;;;;;;5027674;28;20218;-74
2023/07/29 11:17:40;;;;;;;2.23;2.10;;;25.60;99.90;;;;;;5033266;28;20198;-74
2023/07/29 11:20:09;;;;;;;1.97;1.80;;;25.70;99.90;;;;;;5033679;28;20619;-74
2023/07/29 11:22:36;;;;;;;2.47;1.90;;;25.70;99.90;;;;;;5033480;28;20187;-75
2023/07/29 11:25:02;;;;;;;2.50;1.83;;;25.80;99.90;;;;;;5033070;28;20273;-74
2023/07/29 11:27:28;;;;;;;3.27;2.10;;;26.00;99.90;;;;;;5033223;28;20179;-76
2023/07/29 11:29:59;;;;;;;2.50;1.90;;;25.90;99.90;;;;;;5033355;28;20215;-74
2023/07/29 11:32:25;;;;;;;3.10;2.00;;;25.80;99.90;;;;;;4999376;28;20212;-76
2023/07/29 11:34:51;;;;;;;2.43;1.90;;;25.70;99.90;;;;;;5033037;28;20195;-74
2023/07/29 11:37:17;;;;;;;2.70;2.10;;;25.50;99.90;;;;;;5032934;28;20189;-75
2023/07/29 11:39:44;;;;;;;2.30;1.80;;;25.50;99.90;;;;;;5033174;28;20566;-75
2023/07/29 11:42:16;;;;;;;2.20;2.00;;;25.90;99.90;;;;;;5033338;28;20270;-76
2023/07/29 11:44:42;;;;;;;3.37;1.70;;;26.20;92.60;;;;;;5032969;28;20689;-74
2023/07/29 11:47:12;;;;;;;5.60;2.20;;;26.60;89.10;;;;;;5032893;28;20281;-74
2023/07/29 11:49:41;;;;;;;1.83;1.73;;;27.00;83.70;;;;;;5033058;28;20186;-74
2023/07/29 11:52:08;;;;;;;1.93;1.80;;;27.10;83.40;;;;;;5015419;28;20568;-74
2023/07/29 11:54:38;;;;;;;2.00;1.80;;;27.60;80.50;;;;;;5015014;28;20281;-74
2023/07/29 11:57:07;;;;;;;1.80;1.70;;;28.20;73.70;;;;;;5026578;28;20182;-75
2023/07/29 11:59:37;;;;;;;1.93;1.83;;;28.70;71.00;;;;;;5032775;28;20531;-75
2023/07/29 12:02:11;;;;;;;2.97;1.83;;;29.00;68.50;;;;;;4982467;28;20241;-74
2023/07/29 12:04:38;;;;;;;2.37;1.73;;;28.90;62.00;;;;;;5030919;28;20219;-75
2023/07/29 12:07:04;;;;;;;2.37;1.97;;;28.80;61.80;;;;;;5032589;28;20179;-75
2023/07/29 12:09:30;;;;;;;2.30;1.80;;;28.60;63.10;;;;;;5032770;28;20218;-75
2023/07/29 12:11:56;;;;;;;2.10;1.90;;;28.70;65.60;;;;;;5032726;28;20241;-73
2023/07/29 12:14:25;;;;;;;1.93;1.83;;;28.60;65.10;;;;;;5032439;28;20199;-73
2023/07/29 12:16:51;;;;;;;2.00;1.90;;;28.50;65.30;;;;;;5012726;28;20266;-74
2023/07/29 12:19:17;;;;;;;2.70;1.60;;;28.40;66.40;;;;;;5032593;28;20183;-73
2023/07/29 12:21:44;;;;;;;1.73;1.63;;;28.30;65.90;;;;;;5032577;28;20191;-73
2023/07/29 12:24:12;;;;;;;1.90;1.60;;;28.20;65.00;;;;;;5032302;28;20856;-73
2023/07/29 12:26:38;;;;;;;2.23;1.57;;;28.50;63.90;;;;;;5032254;28;20197;-74
2023/07/29 12:29:19;;;;;;;1.50;1.40;;;29.40;63.90;;;;;;5013741;28;20193;-73
2023/07/29 12:31:46;;;;;;;2.37;1.63;;;30.10;58.70;;;;;;5032407;28;20301;-73
2023/07/29 12:34:21;;;;;;;1.50;1.40;;;30.60;57.50;;;;;;5032146;28;20206;-74
2023/07/29 12:36:49;;;;;;;1.80;1.70;;;30.90;56.10;;;;;;5014434;28;20194;-74
2023/07/29 12:39:23;;;;;;;1.60;1.50;;;30.30;54.70;;;;;;4998720;28;20236;-74
2023/07/29 12:41:50;;;;;;;1.50;1.40;;;29.60;55.80;;;;;;5014993;28;20194;-75
2023/07/29 12:44:17;;;;;;;2.23;1.70;;;29.50;56.00;;;;;;5014642;28;20237;-73
2023/07/29 12:46:43;;;;;;;1.77;1.67;;;29.50;55.90;;;;;;5012585;28;20892;-74
2023/07/29 12:49:09;;;;;;;2.40;1.70;;;29.80;55.00;;;;;;5032577;28;20569;-74